Terminal Aerodrome Forecast
Issued by NWS Louisville, KY

Home | Current Version | Previous Version | Text Only | Print | Product List | Glossary On
Versions: 1 2 3 4 5 6 7 8 9 10 11 12 13 14 15
000
FTUS43 KLMK 222300
TAFSDF
TAF
KSDF 222325Z 2300/2406 18009KT P6SM SCT060 BKN100
     FM230600 17008KT P6SM BKN050 WS015/21040KT
     FM231500 15012G18KT P6SM VCSH BKN025
     FM231900 14012G18KT 4SM SHRA BKN015=

USA.gov is the U.S. government's official web portal to all federal, state and local government web resources and services.